createdAt,value
2017-09-25T00:01:34.599Z,98.40
2017-09-25T00:04:02.345Z,98.50
2017-09-25T00:06:30.009Z,98.50
2017-09-25T00:08:57.828Z,98.90
2017-09-25T00:11:25.495Z,98.80
2017-09-25T00:13:53.916Z,99.00
2017-09-25T00:16:21.663Z,99.00
2017-09-25T00:18:49.362Z,99.00
2017-09-25T00:21:17.027Z,99.20
2017-09-25T00:23:44.731Z,99.10
2017-09-25T00:26:12.428Z,98.90
2017-09-25T00:28:40.141Z,98.70
2017-09-25T00:31:08.571Z,98.50
2017-09-25T00:33:36.309Z,98.50
2017-09-25T00:36:04.024Z,98.70
2017-09-25T00:38:31.686Z,99.00
2017-09-25T00:41:00.175Z,98.70
2017-09-25T00:43:28.602Z,99.10
2017-09-25T00:45:56.351Z,99.00
2017-09-25T00:48:24.050Z,99.10
2017-09-25T00:50:51.810Z,99.00
2017-09-25T00:53:31.433Z,99.10
2017-09-25T00:55:59.151Z,99.00
2017-09-25T00:58:26.880Z,98.80
2017-09-25T01:01:06.496Z,98.70
2017-09-25T01:03:45.884Z,98.80
2017-09-25T01:06:25.556Z,99.00
2017-09-25T01:08:53.360Z,99.00
2017-09-25T01:11:21.888Z,99.30
2017-09-25T01:13:49.607Z,99.30
2017-09-25T01:16:18.087Z,99.70
2017-09-25T01:18:46.534Z,99.60
2017-09-25T01:21:14.299Z,99.60
2017-09-25T01:23:42.048Z,99.80
2017-09-25T01:26:09.824Z,99.90
2017-09-25T01:28:37.500Z,99.90
2017-09-25T01:31:05.979Z,99.90
2017-09-25T01:33:34.431Z,99.70
2017-09-25T01:36:02.185Z,99.70
2017-09-25T01:38:29.864Z,99.80
2017-09-25T01:40:57.531Z,99.90
2017-09-25T01:43:25.273Z,99.70
2017-09-25T01:45:52.946Z,99.90
2017-09-25T01:48:21.392Z,99.90
2017-09-25T01:50:49.119Z,99.90
2017-09-25T01:53:17.315Z,99.90
2017-09-25T01:55:45.047Z,99.70
2017-09-25T01:58:12.717Z,99.20
2017-09-25T02:00:40.500Z,99.40
2017-09-25T02:03:08.177Z,99.90
2017-09-25T02:05:35.924Z,99.90
2017-09-25T02:08:03.603Z,99.90
2017-09-25T02:10:31.275Z,99.90
2017-09-25T02:12:59.023Z,99.80
2017-09-25T02:15:26.760Z,99.90
2017-09-25T02:17:54.428Z,99.90
2017-09-25T02:20:22.174Z,99.90
2017-09-25T02:22:49.853Z,99.80
2017-09-25T02:25:17.531Z,99.30
2017-09-25T02:27:45.255Z,99.00
2017-09-25T02:30:12.940Z,99.00
2017-09-25T02:32:40.657Z,99.20
2017-09-25T02:35:08.332Z,99.40
2017-09-25T02:37:36.091Z,99.30
2017-09-25T02:40:03.772Z,99.10
2017-09-25T02:42:31.479Z,99.20
2017-09-25T02:44:59.918Z,99.20
2017-09-25T02:47:27.648Z,99.20
2017-09-25T02:49:55.339Z,99.20
2017-09-25T02:52:23.017Z,99.20
2017-09-25T02:54:50.744Z,99.50
2017-09-25T02:57:19.196Z,99.40
2017-09-25T02:59:46.912Z,99.40
2017-09-25T03:02:14.592Z,99.40
2017-09-25T03:04:43.072Z,99.40
2017-09-25T03:07:11.618Z,99.10
2017-09-25T03:09:40.096Z,98.90
2017-09-25T03:12:07.769Z,98.80
2017-09-25T03:14:35.483Z,99.20
2017-09-25T03:17:03.163Z,99.20
2017-09-25T03:19:30.893Z,99.40
2017-09-25T03:21:58.588Z,99.30
2017-09-25T03:24:26.316Z,99.40
2017-09-25T03:26:53.988Z,99.90
2017-09-25T03:29:21.740Z,99.90
2017-09-25T03:31:49.418Z,99.90
2017-09-25T03:34:17.133Z,99.90
2017-09-25T03:36:45.573Z,99.90
2017-09-25T03:39:13.290Z,99.80
2017-09-25T03:41:40.976Z,99.50
2017-09-25T03:44:08.688Z,99.30
2017-09-25T03:46:37.133Z,99.60
2017-09-25T03:49:04.862Z,99.50
2017-09-25T03:51:32.535Z,99.30
2017-09-25T03:54:00.263Z,99.40
2017-09-25T03:56:28.705Z,99.80
2017-09-25T03:58:56.403Z,99.70
2017-09-25T04:01:24.120Z,99.90
2017-09-25T04:03:51.788Z,99.70
2017-09-25T04:06:19.516Z,99.40
2017-09-25T04:08:47.200Z,99.20
2017-09-25T04:11:14.924Z,99.00
2017-09-25T04:13:42.605Z,99.60
2017-09-25T04:16:10.329Z,99.60
2017-09-25T04:18:38.015Z,99.70
2017-09-25T04:21:05.755Z,99.40
2017-09-25T04:23:33.421Z,99.70
2017-09-25T04:26:01.132Z,99.80
2017-09-25T04:28:28.804Z,99.70
2017-09-25T04:30:57.285Z,99.70
2017-09-25T04:33:25.722Z,99.50
2017-09-25T04:35:53.429Z,99.40
2017-09-25T04:38:21.866Z,99.50
2017-09-25T04:40:49.581Z,99.50
2017-09-25T04:43:17.251Z,99.30
2017-09-25T04:45:44.963Z,99.50
2017-09-25T04:48:12.643Z,99.40
2017-09-25T04:50:41.135Z,99.90
2017-09-25T04:53:09.566Z,99.90
2017-09-25T04:55:37.316Z,99.90
2017-09-25T04:58:04.987Z,99.80
2017-09-25T05:00:32.664Z,99.60
2017-09-25T05:03:00.377Z,99.90
2017-09-25T05:05:28.046Z,99.90
2017-09-25T05:07:55.756Z,99.90
2017-09-25T05:10:24.193Z,99.90
2017-09-25T05:12:51.932Z,99.90
2017-09-25T05:15:19.660Z,99.90
2017-09-25T05:17:47.388Z,99.70
2017-09-25T05:20:15.078Z,99.70
2017-09-25T05:22:43.569Z,99.80
2017-09-25T05:25:11.999Z,99.90
2017-09-25T05:27:39.707Z,99.90
2017-09-25T05:30:07.380Z,99.80
2017-09-25T05:32:35.091Z,99.90
2017-09-25T05:35:02.764Z,99.90
2017-09-25T05:37:30.485Z,99.90
2017-09-25T05:39:58.151Z,99.90
2017-09-25T05:42:25.873Z,99.90
2017-09-25T05:44:53.554Z,99.90
2017-09-25T05:47:21.275Z,99.90
2017-09-25T05:49:49.715Z,99.90
2017-09-25T05:52:17.436Z,99.90
2017-09-25T05:54:45.120Z,99.90
2017-09-25T05:57:12.859Z,99.90
2017-09-25T05:59:40.551Z,99.90
2017-09-25T06:02:08.267Z,99.90
2017-09-25T06:04:35.935Z,99.90
2017-09-25T06:07:03.612Z,99.90
2017-09-25T06:09:32.088Z,99.90
2017-09-25T06:11:59.809Z,99.90
2017-09-25T06:14:28.335Z,99.90
2017-09-25T06:16:56.052Z,99.90
2017-09-25T06:19:24.580Z,99.50
2017-09-25T06:21:52.271Z,99.50
2017-09-25T06:24:19.989Z,99.40
2017-09-25T06:26:47.688Z,99.20
2017-09-25T06:29:15.409Z,99.10
2017-09-25T06:31:43.190Z,98.30
2017-09-25T06:34:10.908Z,98.20
2017-09-25T06:36:38.576Z,97.70
2017-09-25T06:39:06.291Z,97.70
2017-09-25T06:41:33.964Z,97.80
2017-09-25T06:44:01.688Z,97.50
2017-09-25T06:46:29.384Z,97.60
2017-09-25T06:48:57.100Z,97.60
2017-09-25T06:51:24.775Z,98.10
2017-09-25T06:53:52.484Z,97.80
2017-09-25T06:56:20.154Z,97.60
2017-09-25T06:58:47.876Z,97.50
2017-09-25T07:01:15.552Z,97.60
2017-09-25T07:03:44.053Z,98.40
2017-09-25T07:06:11.723Z,98.30
2017-09-25T07:08:39.395Z,98.30
2017-09-25T07:11:07.108Z,98.30
2017-09-25T07:13:35.551Z,98.00
2017-09-25T07:16:03.280Z,98.00
2017-09-25T07:18:30.959Z,98.40
2017-09-25T07:20:58.679Z,98.30
2017-09-25T07:23:27.120Z,98.10
2017-09-25T07:25:54.861Z,98.10
2017-09-25T07:28:22.548Z,98.50
2017-09-25T07:30:50.269Z,98.90
2017-09-25T07:33:17.946Z,99.10
2017-09-25T07:35:45.681Z,98.90
2017-09-25T07:38:15.216Z,98.70
2017-09-25T07:40:42.936Z,98.70
2017-09-25T07:43:10.611Z,98.50
2017-09-25T07:45:38.348Z,98.40
2017-09-25T07:48:06.038Z,98.20
2017-09-25T07:50:33.758Z,98.60
2017-09-25T07:53:02.200Z,98.40
2017-09-25T07:55:29.916Z,98.40
2017-09-25T07:57:57.583Z,98.40
2017-09-25T08:00:25.320Z,98.10
2017-09-25T08:02:53.786Z,97.70
2017-09-25T08:05:22.269Z,97.30
2017-09-25T08:07:50.705Z,97.40
2017-09-25T08:10:18.480Z,97.40
2017-09-25T08:12:46.151Z,97.00
2017-09-25T08:15:13.830Z,96.80
2017-09-25T08:17:42.307Z,96.70
2017-09-25T08:20:10.813Z,96.70
2017-09-25T08:22:38.547Z,96.70
2017-09-25T08:25:06.992Z,96.60
2017-09-25T08:27:34.712Z,96.50
2017-09-25T08:30:02.393Z,96.60
2017-09-25T08:32:30.124Z,96.40
2017-09-25T08:34:57.809Z,96.30
2017-09-25T08:37:25.532Z,96.50
2017-09-25T08:39:53.972Z,95.70
2017-09-25T08:42:21.685Z,95.70
2017-09-25T08:44:49.353Z,95.40
2017-09-25T08:47:17.064Z,95.70
2017-09-25T08:49:44.752Z,95.60
2017-09-25T08:52:13.284Z,94.80
2017-09-25T08:54:40.966Z,94.80
2017-09-25T08:57:08.681Z,94.90
2017-09-25T08:59:37.115Z,94.00
2017-09-25T09:02:05.598Z,94.00
2017-09-25T09:04:34.032Z,94.00
2017-09-25T09:07:01.756Z,94.00
2017-09-25T09:09:29.426Z,94.20
2017-09-25T09:11:57.136Z,94.00
2017-09-25T09:14:24.819Z,94.10
2017-09-25T09:16:53.316Z,93.80
2017-09-25T09:19:20.991Z,93.80
2017-09-25T09:21:48.664Z,93.40
2017-09-25T09:24:16.379Z,93.60
2017-09-25T09:26:44.820Z,93.00
2017-09-25T09:29:12.575Z,93.20
2017-09-25T09:31:40.257Z,92.80
2017-09-25T09:34:07.980Z,92.90
2017-09-25T09:36:35.666Z,92.90
2017-09-25T09:39:03.466Z,92.70
2017-09-25T09:41:31.916Z,93.00
2017-09-25T09:43:59.636Z,93.00
2017-09-25T09:46:27.319Z,92.70
2017-09-25T09:48:55.031Z,92.40
2017-09-25T09:51:24.386Z,92.40
2017-09-25T09:53:52.108Z,92.40
2017-09-25T09:56:19.788Z,92.50
2017-09-25T09:58:47.505Z,92.90
2017-09-25T10:01:15.222Z,92.60
2017-09-25T10:03:42.936Z,92.20
2017-09-25T10:06:10.604Z,91.40
2017-09-25T10:08:38.337Z,92.10
2017-09-25T10:11:06.767Z,91.40
2017-09-25T10:13:34.480Z,91.40
2017-09-25T10:16:02.931Z,90.70
2017-09-25T10:18:30.669Z,90.60
2017-09-25T10:20:58.348Z,90.20
2017-09-25T10:23:26.016Z,89.80
2017-09-25T10:25:53.736Z,89.10
2017-09-25T10:28:21.411Z,88.50
2017-09-25T10:30:49.130Z,89.70
2017-09-25T10:33:16.797Z,88.70
2017-09-25T10:35:44.512Z,89.10
2017-09-25T10:38:12.188Z,89.00
2017-09-25T10:40:40.674Z,90.60
2017-09-25T10:43:09.124Z,90.70
2017-09-25T10:45:36.835Z,90.70
2017-09-25T10:48:04.516Z,90.90
2017-09-25T10:50:32.228Z,90.80
2017-09-25T10:53:00.669Z,91.10
2017-09-25T10:55:29.179Z,91.30
2017-09-25T10:57:57.611Z,91.20
2017-09-25T11:00:25.321Z,91.20
2017-09-25T11:02:53.772Z,91.40
2017-09-25T11:05:21.512Z,91.30
2017-09-25T11:07:49.201Z,91.20
2017-09-25T11:10:16.913Z,91.60
2017-09-25T11:12:44.588Z,91.50
2017-09-25T11:15:12.306Z,91.10
2017-09-25T11:17:40.741Z,90.70
2017-09-25T11:20:08.455Z,90.70
2017-09-25T11:22:36.135Z,91.00
2017-09-25T11:25:03.857Z,90.10
2017-09-25T11:27:32.353Z,90.90
2017-09-25T11:30:00.029Z,90.90
2017-09-25T11:32:27.748Z,90.10
2017-09-25T11:34:55.416Z,90.00
2017-09-25T11:37:23.895Z,89.50
2017-09-25T11:39:52.346Z,88.80
2017-09-25T11:42:20.093Z,88.70
2017-09-25T11:44:47.772Z,88.50
2017-09-25T11:47:15.488Z,87.90
2017-09-25T11:49:43.176Z,88.00
2017-09-25T11:52:11.655Z,85.80
2017-09-25T11:54:39.332Z,85.70
2017-09-25T11:57:07.044Z,84.40
2017-09-25T11:59:34.713Z,83.70
2017-09-25T12:02:02.432Z,83.90
2017-09-25T12:04:30.881Z,84.00
2017-09-25T12:06:58.599Z,84.70
2017-09-25T12:09:26.271Z,83.60
2017-09-25T12:11:53.983Z,81.90
2017-09-25T12:14:21.656Z,82.30
2017-09-25T12:16:50.136Z,81.60
2017-09-25T12:19:18.579Z,82.80
2017-09-25T12:21:46.296Z,82.70
2017-09-25T12:24:13.967Z,82.50
2017-09-25T12:26:41.800Z,81.50
2017-09-25T12:29:10.278Z,80.60
2017-09-25T12:31:38.817Z,80.40
2017-09-25T12:34:06.540Z,80.40
2017-09-25T12:36:34.215Z,78.00
2017-09-25T12:39:01.929Z,78.80
2017-09-25T12:41:30.371Z,78.60
2017-09-25T12:43:58.130Z,78.50
2017-09-25T12:46:25.876Z,76.80
2017-09-25T12:48:53.589Z,77.60
2017-09-25T12:51:22.023Z,77.70
2017-09-25T12:53:49.740Z,77.70
2017-09-25T12:56:18.171Z,77.40
2017-09-25T12:58:45.892Z,77.30
2017-09-25T13:01:13.556Z,76.60
2017-09-25T13:03:41.313Z,75.10
2017-09-25T13:06:08.976Z,74.90
2017-09-25T13:08:36.685Z,75.00
2017-09-25T13:11:04.369Z,76.00
2017-09-25T13:13:32.862Z,75.80
2017-09-25T13:16:00.524Z,75.60
2017-09-25T13:18:28.248Z,75.60
2017-09-25T13:20:55.920Z,76.00
2017-09-25T13:23:24.432Z,75.40
2017-09-25T13:25:52.091Z,75.50
2017-09-25T13:28:19.820Z,77.50
2017-09-25T13:30:48.262Z,76.80
2017-09-25T13:33:15.982Z,76.80
2017-09-25T13:35:43.712Z,75.80
2017-09-25T13:38:11.396Z,75.60
2017-09-25T13:40:39.104Z,76.60
2017-09-25T13:43:06.779Z,77.50
2017-09-25T13:45:34.489Z,76.60
2017-09-25T13:48:02.165Z,75.60
2017-09-25T13:50:29.872Z,76.50
2017-09-25T13:52:57.539Z,77.70
2017-09-25T13:55:26.011Z,79.00
2017-09-25T13:57:53.677Z,78.80
2017-09-25T14:02:55.825Z,77.50
2017-09-25T14:05:23.544Z,77.50
2017-09-25T14:07:51.221Z,77.70
2017-09-25T14:10:18.932Z,79.10
2017-09-25T14:12:47.367Z,80.10
2017-09-25T14:15:15.076Z,80.20
2017-09-25T14:17:43.520Z,80.10
2017-09-25T14:20:11.235Z,80.00
2017-09-25T14:22:38.905Z,80.20
2017-09-25T14:25:06.673Z,80.00
2017-09-25T14:27:34.339Z,80.80
2017-09-25T14:30:02.076Z,80.60
2017-09-25T14:32:29.744Z,80.70
2017-09-25T14:34:57.414Z,81.10
2017-09-25T14:37:25.145Z,80.90
2017-09-25T14:39:52.840Z,80.60
2017-09-25T14:42:20.553Z,80.50
2017-09-25T14:44:49.097Z,80.50
2017-09-25T14:47:16.972Z,80.50
2017-09-25T14:49:44.637Z,81.70
2017-09-25T14:52:12.358Z,82.20
2017-09-25T14:54:40.028Z,81.50
2017-09-25T14:57:07.739Z,82.50
2017-09-25T14:59:36.167Z,83.40
2017-09-25T15:02:03.885Z,83.40
2017-09-25T15:04:32.325Z,83.20
2017-09-25T15:07:00.036Z,83.20
2017-09-25T15:09:27.712Z,82.50
2017-09-25T15:11:55.427Z,83.20
2017-09-25T15:14:23.101Z,82.60
2017-09-25T15:16:51.580Z,82.60
2017-09-25T15:19:20.017Z,82.00
2017-09-25T15:21:47.777Z,82.00
2017-09-25T15:24:15.447Z,81.70
2017-09-25T15:26:43.157Z,79.90
2017-09-25T15:29:10.836Z,80.30
2017-09-25T15:31:38.552Z,79.80
2017-09-25T15:34:06.996Z,78.00
2017-09-25T15:36:34.757Z,78.00
2017-09-25T15:39:02.448Z,78.40
2017-09-25T15:41:30.875Z,78.50
2017-09-25T15:43:58.582Z,78.50
2017-09-25T15:46:27.049Z,79.70
2017-09-25T15:48:54.769Z,79.70
2017-09-25T15:51:22.439Z,80.40
2017-09-25T15:53:50.148Z,82.10
2017-09-25T15:56:18.588Z,82.80
2017-09-25T15:58:46.301Z,82.80
2017-09-25T16:01:13.966Z,82.00
2017-09-25T16:03:41.676Z,81.90
2017-09-25T16:06:09.341Z,82.20
2017-09-25T16:08:37.065Z,80.80
2017-09-25T16:11:04.740Z,81.30
2017-09-25T16:13:32.460Z,81.60
2017-09-25T16:16:00.136Z,81.60
2017-09-25T16:18:27.846Z,81.80
2017-09-25T16:20:55.520Z,82.50
2017-09-25T16:23:23.996Z,82.70
2017-09-25T16:25:52.440Z,83.30
2017-09-25T16:28:20.148Z,83.90
2017-09-25T16:30:48.583Z,82.80
2017-09-25T16:33:16.305Z,82.70
2017-09-25T16:35:43.980Z,82.80
2017-09-25T16:38:11.708Z,83.80
2017-09-25T16:40:40.163Z,82.10
2017-09-25T16:43:07.886Z,82.10
2017-09-25T16:45:35.664Z,83.00
2017-09-25T16:48:03.339Z,83.40
2017-09-25T16:50:31.072Z,83.30
2017-09-25T16:52:58.727Z,83.70
2017-09-25T16:55:26.459Z,83.90
2017-09-25T16:57:54.128Z,84.20
2017-09-25T17:00:22.048Z,84.30
2017-09-25T17:02:49.727Z,84.70
2017-09-25T17:05:18.208Z,85.70
2017-09-25T17:07:46.675Z,86.20
2017-09-25T17:10:15.152Z,86.40
2017-09-25T17:12:43.588Z,87.30
2017-09-25T17:15:11.504Z,87.20
2017-09-25T17:17:40.042Z,89.20
2017-09-25T17:20:07.759Z,89.10
2017-09-25T17:22:35.452Z,90.00
2017-09-25T17:25:03.171Z,90.20
2017-09-25T17:27:31.619Z,91.50
2017-09-25T17:29:59.346Z,91.40
2017-09-25T17:32:27.013Z,91.50
2017-09-25T17:34:54.722Z,91.80
2017-09-25T17:37:23.147Z,92.30
2017-09-25T17:39:50.880Z,92.20
2017-09-25T17:42:18.563Z,92.30
2017-09-25T17:44:46.289Z,92.10
2017-09-25T17:47:13.951Z,92.10
2017-09-25T17:49:41.685Z,92.20
2017-09-25T17:52:09.355Z,92.40
2017-09-25T17:54:37.783Z,92.50
2017-09-25T17:57:05.492Z,92.50
2017-09-25T17:59:33.939Z,92.60
2017-09-25T18:02:01.923Z,92.60
2017-09-25T18:04:29.592Z,92.70
2017-09-25T18:06:57.308Z,92.60
2017-09-25T18:09:24.981Z,92.80
2017-09-25T18:11:52.698Z,93.00
2017-09-25T18:14:20.412Z,93.20
2017-09-25T18:16:48.124Z,93.50
2017-09-25T18:19:15.791Z,93.80
2017-09-25T18:21:43.500Z,93.80
2017-09-25T18:24:11.180Z,93.70
2017-09-25T18:26:39.659Z,93.50
2017-09-25T18:29:08.100Z,93.50
2017-09-25T18:31:35.844Z,93.50
2017-09-25T18:34:03.521Z,93.60
2017-09-25T18:36:31.228Z,93.50
2017-09-25T18:38:59.673Z,93.10
2017-09-25T18:41:27.391Z,93.10
2017-09-25T18:43:55.063Z,93.10
2017-09-25T18:46:22.771Z,93.20
2017-09-25T18:48:51.215Z,93.60
2017-09-25T18:51:18.888Z,93.50
2017-09-25T18:53:46.601Z,93.60
2017-09-25T18:56:14.264Z,93.80
2017-09-25T18:58:41.974Z,93.70
2017-09-25T19:01:09.673Z,93.90
2017-09-25T19:03:37.395Z,94.40
2017-09-25T19:06:05.080Z,94.70
2017-09-25T19:08:33.556Z,94.60
2017-09-25T19:11:01.991Z,95.00
2017-09-25T19:13:31.986Z,95.00
2017-09-25T19:16:02.666Z,95.40
2017-09-25T19:18:32.712Z,95.40
2017-09-25T19:21:02.161Z,95.60
2017-09-25T19:23:32.016Z,95.70
2017-09-25T19:26:00.421Z,95.30
2017-09-25T19:28:31.217Z,95.30
2017-09-25T19:31:00.896Z,95.30
2017-09-25T19:33:28.880Z,95.60
2017-09-25T19:35:57.328Z,96.30
2017-09-25T19:38:25.047Z,96.30
2017-09-25T19:40:52.769Z,96.60
2017-09-25T19:43:20.493Z,96.60
2017-09-25T19:45:48.200Z,96.30
2017-09-25T19:48:27.527Z,95.50
2017-09-25T19:51:14.809Z,95.40
2017-09-25T19:53:42.564Z,95.40
2017-09-25T19:56:14.173Z,95.40
2017-09-25T19:58:43.322Z,95.60
2017-09-25T20:01:11.035Z,95.60
2017-09-25T20:03:38.814Z,95.70
2017-09-25T20:06:06.545Z,95.80
2017-09-25T20:08:35.089Z,95.90
2017-09-25T20:11:03.307Z,95.90
2017-09-25T20:13:31.783Z,96.20
2017-09-25T20:16:15.148Z,96.10
2017-09-25T20:18:42.920Z,96.00
2017-09-25T20:21:10.606Z,96.10
2017-09-25T20:23:38.279Z,96.20
2017-09-25T20:26:06.764Z,96.10
2017-09-25T20:28:35.211Z,96.50
2017-09-25T20:31:02.930Z,96.50
2017-09-25T20:33:30.605Z,96.50
2017-09-25T20:35:58.318Z,96.60
2017-09-25T20:38:26.791Z,96.60
2017-09-25T20:40:57.971Z,96.60
2017-09-25T20:43:30.311Z,96.60
2017-09-25T20:45:58.787Z,97.10
2017-09-25T20:48:27.264Z,97.10
2017-09-25T20:50:55.745Z,97.00
2017-09-25T20:53:24.191Z,97.40
2017-09-25T20:55:51.924Z,97.40
2017-09-25T20:58:19.607Z,97.50
2017-09-25T21:00:47.324Z,97.00
2017-09-25T21:03:15.000Z,97.00
2017-09-25T21:05:42.770Z,97.00
2017-09-25T21:08:10.461Z,97.00
2017-09-25T21:10:38.183Z,97.30
2017-09-25T21:13:05.900Z,97.50
2017-09-25T21:15:34.429Z,97.70
2017-09-25T21:18:02.184Z,97.70
2017-09-25T21:20:29.871Z,97.60
2017-09-25T21:22:57.631Z,97.50
2017-09-25T21:25:25.357Z,97.70
2017-09-25T21:27:53.122Z,97.90
2017-09-25T21:30:20.794Z,98.40
2017-09-25T21:32:48.511Z,98.30
2017-09-25T21:35:16.943Z,98.30
2017-09-25T21:37:44.665Z,98.30
2017-09-25T21:40:12.344Z,98.00
2017-09-25T21:42:40.064Z,97.80
2017-09-25T21:45:08.506Z,98.10
2017-09-25T21:47:36.229Z,98.00
2017-09-25T21:50:03.956Z,98.00
2017-09-25T21:52:31.676Z,97.60
2017-09-25T21:54:59.348Z,97.90
2017-09-25T21:57:27.078Z,98.20
2017-09-25T21:59:54.797Z,98.20
2017-09-25T22:02:22.512Z,98.20
2017-09-25T22:04:50.211Z,98.40
2017-09-25T22:07:17.938Z,98.40
2017-09-25T22:09:45.618Z,98.40
2017-09-25T22:12:13.339Z,98.10
2017-09-25T22:14:41.012Z,98.00
2017-09-25T22:17:08.735Z,98.00
2017-09-25T22:19:37.171Z,98.00
2017-09-25T22:22:04.855Z,97.90
2017-09-25T22:24:32.572Z,98.10
2017-09-25T22:27:00.239Z,98.70
2017-09-25T22:29:27.948Z,98.60
2017-09-25T22:31:56.374Z,98.70
2017-09-25T22:34:24.127Z,98.70
2017-09-25T22:36:51.839Z,99.10
2017-09-25T22:39:19.616Z,99.10
2017-09-25T22:41:48.103Z,98.60
2017-09-25T22:44:23.447Z,98.60
2017-09-25T22:46:51.124Z,98.00
2017-09-25T22:49:18.883Z,97.90
2017-09-25T22:51:46.603Z,97.70
2017-09-25T22:54:15.146Z,97.80
2017-09-25T22:56:42.871Z,97.80
2017-09-25T22:59:10.591Z,98.10
2017-09-25T23:01:38.307Z,98.30
2017-09-25T23:04:11.712Z,98.30
2017-09-25T23:06:39.423Z,98.40
2017-09-25T23:09:07.955Z,98.10
2017-09-25T23:11:41.435Z,98.10
2017-09-25T23:14:09.200Z,98.00
2017-09-25T23:16:36.887Z,97.90
2017-09-25T23:19:04.658Z,98.00
2017-09-25T23:21:32.330Z,98.10
2017-09-25T23:24:00.067Z,98.50
2017-09-25T23:26:27.748Z,98.40
2017-09-25T23:28:55.460Z,98.20
2017-09-25T23:31:23.978Z,98.30
2017-09-25T23:33:51.651Z,98.20
2017-09-25T23:36:19.373Z,97.90
2017-09-25T23:38:47.040Z,98.00
2017-09-25T23:41:14.754Z,97.70
2017-09-25T23:43:42.424Z,98.10
2017-09-25T23:46:10.135Z,98.50
2017-09-25T23:48:37.803Z,98.70
2017-09-25T23:51:05.527Z,98.80
2017-09-25T23:53:33.196Z,98.80
2017-09-25T23:56:00.911Z,98.40
2017-09-25T23:58:29.350Z,98.10
